ハリファックス の空港の天気 - METARとTAF

ハリファックス国際空港 ( CYHZ / YHZ ) - カナダ ノバスコシア州ハリファックス
飛行場実況気象(Metar)
観測時間09/24 22:00 ADT (09/25 01:00 UTC)
風向・風速北 3m/s
視程10km以上
天気現象
なし
気温5℃
湿度61%
気圧1038.8hPa
METARCYHZ 250100Z 36005KT 15SM SKC 05/M02 A3066 RMK SLP388
過去の天気等 Google飛行場航空写真 Wunderground天気予報

過去48時間のMETAR

飛行場予報(TAF)
発表時間: 9/24 20:38 ADT (9/24 23:38 UTC)
予報対象時間: 24日21時 ADT ~ 25日21時 ADT
風向・風速北北東 3m/s
視程10km以上
なし
25日3時 ADT から
風向・風速不定 2m/s
視程10km以上
なし
25日10時 ADT ~ 25日12時 ADT に徐々に
風向・風速南南東 6m/s
TAF CYHZ 242338Z 2500/2524 02005KT P6SM SKC
FM250600 VRB03KT P6SM SKC
BECMG 2513/2515 16012KT RMK NXT FCST BY 250300Z